Time;durP1;ratioP1;P1;durP2;ratioP2;P2;SDS_P1;SDS_P2;PMS_P1;PMS_P2;Temp;Humidity;BMP_temperature;BMP_pressure;BME280_temperature;BME280_humidity;BME280_pressure;Samples;Min_cycle;Max_cycle;Signal;HPM_P1;HPM_P2
2022/11/08 00:01:42;;;;;;;30.60;25.30;;;;;;;11.30;74.20;95383.84;5138016;27;20195;-72
2022/11/08 00:04:12;;;;;;;29.70;25.98;;;;;;;11.31;74.60;95381.88;5138944;27;20205;-73
2022/11/08 00:14:52;;;;;;;28.77;25.70;;;;;;;11.27;74.87;95378.19;5137468;27;20191;-73
2022/11/08 00:17:20;;;;;;;30.50;27.23;;;;;;;11.29;74.58;95375.88;5138706;27;20187;-72
2022/11/08 00:19:48;;;;;;;31.20;25.85;;;;;;;11.30;74.72;95371.97;5137750;27;20287;-72
2022/11/08 00:22:15;;;;;;;29.55;26.45;;;;;;;11.29;74.77;95378.63;5137626;27;20195;-72
2022/11/08 00:24:43;;;;;;;29.85;26.02;;;;;;;11.28;74.32;95368.75;5138192;27;20552;-73
2022/11/08 00:27:11;;;;;;;29.20;26.15;;;;;;;11.27;74.69;95372.69;5138543;27;20216;-73
2022/11/08 00:29:38;;;;;;;31.63;25.85;;;;;;;11.29;74.95;95370.34;5137701;27;20187;-73
2022/11/08 00:32:06;;;;;;;28.63;25.63;;;;;;;11.32;74.87;95375.19;5138427;27;20183;-73
2022/11/08 00:34:33;;;;;;;30.60;26.10;;;;;;;11.32;75.01;95373.22;5138393;27;20187;-72
2022/11/08 00:37:02;;;;;;;29.02;25.73;;;;;;;11.27;74.98;95370.72;5138352;27;20216;-72
2022/11/08 00:39:29;;;;;;;30.02;26.15;;;;;;;11.27;74.80;95370.72;5137841;27;20250;-73
2022/11/08 00:41:56;;;;;;;28.75;25.65;;;;;;;11.25;75.02;95370.25;5137258;27;20206;-73
2022/11/08 00:44:23;;;;;;;29.05;25.92;;;;;;;11.26;74.82;95365.56;5138226;27;20187;-72
2022/11/08 00:46:50;;;;;;;29.33;25.95;;;;;;;11.25;74.52;95370.25;5137238;27;20195;-73
2022/11/08 00:49:17;;;;;;;29.70;25.58;;;;;;;11.22;74.97;95372.91;5137162;27;20191;-72
2022/11/08 00:51:44;;;;;;;29.02;25.92;;;;;;;11.19;75.15;95376.41;5137134;27;20191;-72
2022/11/08 00:54:13;;;;;;;29.33;26.02;;;;;;;11.19;75.48;95373.63;5137347;27;20202;-73
2022/11/08 00:56:40;;;;;;;30.50;25.33;;;;;;;11.20;75.49;95364.19;5137903;27;20212;-73
2022/11/08 00:59:07;;;;;;;29.02;25.67;;;;;;;11.22;75.62;95364.63;5137856;27;20226;-73
2022/11/08 01:01:34;;;;;;;27.80;24.90;;;;;;;11.22;75.51;95365.44;5136998;27;20641;-73
2022/11/08 01:04:04;;;;;;;28.77;25.55;;;;;;;11.26;75.66;95371.09;5137807;27;20192;-73
2022/11/08 01:06:31;;;;;;;27.52;24.60;;;;;;;11.22;75.30;95362.69;5136936;27;20226;-73
2022/11/08 01:08:58;;;;;;;28.50;24.40;;;;;;;11.23;75.39;95372.56;5137617;27;20187;-73
2022/11/08 01:11:26;;;;;;;28.85;24.60;;;;;;;11.21;75.20;95363.81;5137111;27;20195;-73
2022/11/08 01:13:56;;;;;;;30.17;25.52;;;;;;;11.19;75.15;95370.88;5137669;27;20198;-73
2022/11/08 01:16:25;;;;;;;29.55;25.75;;;;;;;11.19;75.64;95368.91;5137716;27;20187;-73
2022/11/08 01:18:53;;;;;;;28.92;25.30;;;;;;;11.19;75.58;95365.34;5136088;27;20215;-72
2022/11/08 01:21:21;;;;;;;28.38;25.20;;;;;;;11.14;75.27;95362.81;5137633;27;20191;-72
2022/11/08 01:23:48;;;;;;;30.33;26.98;;;;;;;11.14;75.50;95358.09;5136398;27;20202;-72
2022/11/08 01:26:17;;;;;;;29.02;25.85;;;;;;;11.16;75.61;95361.31;5137367;27;20195;-72
2022/11/08 01:28:46;;;;;;;29.48;24.30;;;;;;;11.18;75.48;95360.97;5137265;27;20175;-72
2022/11/08 01:31:15;;;;;;;32.85;26.02;;;;;;;11.19;75.62;95363.38;5136133;27;20198;-72
2022/11/08 01:33:42;;;;;;;29.33;25.67;;;;;;;11.18;75.43;95358.19;5137271;27;20183;-72
2022/11/08 01:36:10;;;;;;;27.77;24.75;;;;;;;11.19;75.42;95366.16;5136279;27;20271;-72
2022/11/08 01:38:37;;;;;;;30.30;25.08;;;;;;;11.22;75.51;95361.88;5137097;27;20203;-73
2022/11/08 01:41:04;;;;;;;28.92;24.20;;;;;;;11.23;75.72;95355.22;5136534;27;20235;-73
2022/11/08 01:43:40;;;;;;;28.15;24.75;;;;;;;11.22;75.82;95361.88;5136764;27;20210;-73
2022/11/08 01:46:36;;;;;;;27.70;24.58;;;;;;;11.25;75.79;95352.88;5136761;27;20187;-73
2022/11/08 01:49:34;;;;;;;27.15;24.25;;;;;;;11.26;75.83;95358.06;5136941;27;20266;-72
2022/11/08 01:52:13;;;;;;;28.13;24.45;;;;;;;11.25;75.25;95350.94;5135989;27;20202;-73
2022/11/08 01:54:44;;;;;;;27.77;23.88;;;;;;;11.25;75.71;95355.66;5135865;27;20618;-72
2022/11/08 01:57:14;;;;;;;27.55;24.52;;;;;;;11.24;75.79;95360.38;5135858;27;20190;-72
2022/11/08 01:59:43;;;;;;;27.00;24.00;;;;;;;11.25;75.96;95356.44;5136733;27;20199;-73
2022/11/08 02:02:12;;;;;;;27.73;24.67;;;;;;;11.25;75.77;95366.69;5136946;27;20183;-72
2022/11/08 02:04:40;;;;;;;29.13;24.65;;;;;;;11.24;75.72;95374.19;5135740;27;20205;-71
2022/11/08 02:07:07;;;;;;;25.95;23.23;;;;;;;11.23;76.24;95372.56;5136627;27;20183;-72
2022/11/08 02:09:36;;;;;;;28.38;24.48;;;;;;;11.25;76.23;95372.22;5135658;27;20191;-72
2022/11/08 02:12:03;;;;;;;27.55;24.08;;;;;;;11.24;76.61;95365.88;5136543;27;20203;-72
2022/11/08 02:14:31;;;;;;;27.70;24.80;;;;;;;11.23;76.50;95369.00;5136673;27;20190;-72
2022/11/08 02:16:57;;;;;;;28.67;25.58;;;;;;;11.22;76.48;95368.22;5136391;27;20187;-72
2022/11/08 02:19:34;;;;;;;27.90;24.55;;;;;;;11.22;77.05;95365.44;5135918;27;20218;-72
2022/11/08 02:22:04;;;;;;;28.27;24.90;;;;;;;11.23;76.94;95377.28;5136435;27;20194;-72
2022/11/08 02:24:32;;;;;;;29.30;25.00;;;;;;;11.24;76.98;95365.09;5135600;27;20207;-72
2022/11/08 02:26:59;;;;;;;28.27;25.25;;;;;;;11.27;76.65;95365.19;5135394;27;20203;-72
2022/11/08 02:29:28;;;;;;;28.00;25.00;;;;;;;11.30;77.08;95360.94;5135378;27;20194;-72
2022/11/08 02:31:56;;;;;;;29.75;25.35;;;;;;;11.32;76.96;95361.38;5136343;27;20614;-73
2022/11/08 02:34:26;;;;;;;28.48;25.30;;;;;;;11.33;77.30;95363.00;5135484;27;20195;-72
2022/11/08 02:36:52;;;;;;;29.10;25.80;;;;;;;11.34;77.15;95359.09;5136349;27;20191;-72
2022/11/08 02:39:19;;;;;;;29.02;25.92;;;;;;;11.35;76.86;95368.97;5135516;28;20238;-72
2022/11/08 02:41:47;;;;;;;29.92;24.75;;;;;;;11.33;77.17;95366.56;5137281;27;20199;-72
2022/11/08 02:44:14;;;;;;;28.55;25.20;;;;;;;11.31;76.86;95359.78;5140540;27;20198;-72
2022/11/08 02:46:41;;;;;;;29.27;25.05;;;;;;;11.33;77.07;95363.00;5140136;27;20183;-72
2022/11/08 02:49:08;;;;;;;28.08;24.83;;;;;;;11.35;77.18;95359.88;5140493;27;20179;-73
2022/11/08 02:51:35;;;;;;;28.25;25.10;;;;;;;11.36;76.91;95355.97;5140382;27;20179;-73
2022/11/08 02:54:02;;;;;;;28.83;25.08;;;;;;;11.36;76.66;95359.50;5140375;27;20183;-73
2022/11/08 02:56:29;;;;;;;29.23;24.92;;;;;;;11.36;76.78;95365.03;5140249;27;20316;-74
2022/11/08 02:58:57;;;;;;;28.55;25.48;;;;;;;11.37;76.86;95358.38;5139204;27;20215;-73
2022/11/08 03:01:24;;;;;;;26.48;23.65;;;;;;;11.36;77.03;95361.47;5139846;27;20618;-73
2022/11/08 03:03:51;;;;;;;29.13;24.73;;;;;;;11.29;76.92;95353.78;5139223;27;20610;-72
2022/11/08 03:06:18;;;;;;;28.60;23.88;;;;;;;11.25;77.39;95358.41;5139216;27;20195;-72
2022/11/08 03:08:44;;;;;;;29.17;25.77;;;;;;;11.20;77.85;95361.44;5140031;27;20244;-72
2022/11/08 03:11:13;;;;;;;28.95;25.70;;;;;;;11.22;77.54;95361.88;5140072;27;20187;-72
2022/11/08 03:13:39;;;;;;;27.88;24.88;;;;;;;11.22;77.64;95368.22;5140116;27;20240;-72
2022/11/08 03:16:08;;;;;;;28.30;25.15;;;;;;;11.21;77.63;95366.59;5139638;27;20255;-72
2022/11/08 03:18:35;;;;;;;27.83;24.92;;;;;;;11.22;77.99;95370.97;5138960;27;20210;-72
2022/11/08 03:21:01;;;;;;;31.52;26.25;;;;;;;11.23;78.16;95366.25;5138725;27;20638;-72
2022/11/08 03:23:29;;;;;;;28.70;25.63;;;;;;;11.26;78.20;95368.31;5140209;27;20195;-72
2022/11/08 03:25:57;;;;;;;29.80;26.73;;;;;;;11.26;78.52;95373.84;5139787;27;20270;-72
2022/11/08 03:28:24;;;;;;;29.38;25.88;;;;;;;11.24;79.11;95379.69;5139480;27;20198;-72
2022/11/08 03:30:51;;;;;;;32.15;26.40;;;;;;;11.24;79.41;95376.94;5139528;27;20215;-71
2022/11/08 03:33:20;;;;;;;31.90;26.65;;;;;;;11.23;79.70;95374.53;5138952;27;20191;-71
2022/11/08 03:35:48;;;;;;;28.10;25.20;;;;;;;11.22;79.63;95382.03;5139432;27;20649;-71
2022/11/08 03:38:33;;;;;;;30.10;26.83;;;;;;;11.23;80.33;95382.81;5139202;27;20603;-71
2022/11/08 03:41:00;;;;;;;30.05;26.33;;;;;;;11.25;80.25;95380.50;5138187;27;20237;-71
2022/11/08 03:43:27;;;;;;;29.42;26.20;;;;;;;11.25;80.52;95383.25;5138554;27;20210;-72
2022/11/08 03:45:57;;;;;;;32.55;26.60;;;;;;;11.23;80.56;95382.81;5138220;27;20183;-72
2022/11/08 03:48:25;;;;;;;27.63;24.63;;;;;;;11.20;80.74;95383.50;5138164;27;20278;-72
2022/11/08 03:50:52;;;;;;;30.52;27.33;;;;;;;11.18;80.77;95378.31;5138239;27;20202;-72
2022/11/08 03:53:19;;;;;;;27.67;24.73;;;;;;;11.19;80.98;95377.19;5137695;27;20199;-73
2022/11/08 03:55:46;;;;;;;28.85;25.95;;;;;;;11.19;81.17;95376.41;5138798;27;20195;-73
2022/11/08 03:58:13;;;;;;;26.92;24.13;;;;;;;11.21;81.02;95374.06;5138460;27;20530;-72
2022/11/08 04:00:40;;;;;;;28.05;25.02;;;;;;;11.20;81.04;95378.78;5138550;27;20223;-72
2022/11/08 04:03:07;;;;;;;28.05;24.80;;;;;;;11.18;81.07;95377.53;5138238;27;20277;-73
2022/11/08 04:05:35;;;;;;;27.17;24.27;;;;;;;11.15;80.84;95376.28;5138058;27;20195;-72
2022/11/08 04:08:02;;;;;;;27.02;24.08;;;;;;;11.14;81.37;95374.66;5137973;27;20202;-72
2022/11/08 04:10:29;;;;;;;27.95;24.95;;;;;;;11.11;81.25;95372.63;5137851;27;20195;-72
2022/11/08 04:16:00;;;;;;;27.42;24.52;;;;;;;11.12;81.72;95373.41;5137974;27;20190;-72
2022/11/08 04:21:20;;;;;;;28.02;25.10;;;;;;;11.10;81.99;95368.22;5137483;27;20567;-72
2022/11/08 04:23:48;;;;;;;27.80;23.85;;;;;;;11.09;82.26;95356.38;5137942;27;20203;-72
2022/11/08 04:26:15;;;;;;;26.90;24.17;;;;;;;11.10;82.43;95359.94;5137808;27;20530;-72
2022/11/08 04:28:42;;;;;;;27.23;23.85;;;;;;;11.10;82.50;95368.22;5138496;27;20183;-72
2022/11/08 04:31:11;;;;;;;28.00;25.00;;;;;;;11.08;82.49;95365.81;5137721;27;20198;-72
2022/11/08 04:33:38;;;;;;;29.23;26.13;;;;;;;11.11;82.48;95366.28;5138444;27;20621;-72
2022/11/08 04:36:07;;;;;;;28.67;25.60;;;;;;;11.08;82.39;95359.50;5137738;27;20191;-72
2022/11/08 04:38:35;;;;;;;31.55;26.73;;;;;;;11.10;82.70;95357.19;5138020;27;20620;-72
2022/11/08 04:41:03;;;;;;;28.73;25.73;;;;;;;11.12;82.57;95367.91;5138239;27;20231;-72
2022/11/08 04:43:30;;;;;;;27.67;24.77;;;;;;;11.10;82.79;95362.72;5137693;27;20190;-72
2022/11/08 04:46:01;;;;;;;29.45;26.40;;;;;;;11.11;82.72;95356.06;5138527;27;20248;-74
2022/11/08 04:48:28;;;;;;;28.48;25.38;;;;;;;11.14;82.59;95360.06;5138134;27;20179;-73
2022/11/08 04:50:55;;;;;;;27.70;24.65;;;;;;;11.15;82.38;95372.69;5138095;27;20187;-74
2022/11/08 04:53:22;;;;;;;28.95;25.42;;;;;;;11.15;82.41;95380.97;5138005;27;20199;-73
2022/11/08 04:55:50;;;;;;;28.90;25.17;;;;;;;11.15;82.97;95383.75;5137982;27;20209;-74
2022/11/08 04:58:16;;;;;;;29.10;25.90;;;;;;;11.14;82.93;95382.13;5138015;27;20191;-74
2022/11/08 05:00:43;;;;;;;32.03;26.05;;;;;;;11.12;82.68;95376.19;5136699;27;20221;-74
2022/11/08 05:03:10;;;;;;;29.73;26.58;;;;;;;11.09;82.70;95372.94;5136798;27;20205;-73
2022/11/08 05:05:37;;;;;;;30.88;27.67;;;;;;;11.10;82.52;95379.28;5135966;27;20191;-72
2022/11/08 05:08:04;;;;;;;28.35;25.30;;;;;;;11.12;82.75;95390.78;5136844;27;20202;-72
2022/11/08 05:10:31;;;;;;;30.10;26.25;;;;;;;11.13;82.07;95395.13;5137646;27;20191;-72
2022/11/08 05:12:59;;;;;;;27.48;24.65;;;;;;;11.13;82.14;95395.13;5136744;27;20207;-74
2022/11/08 05:15:26;;;;;;;29.70;25.92;;;;;;;11.15;81.96;95389.25;5137695;27;20198;-72
2022/11/08 05:17:53;;;;;;;28.63;25.55;;;;;;;11.18;82.33;95385.81;5137780;27;20192;-72
2022/11/08 05:25:48;;;;;;;30.30;26.60;;;;;;;11.20;82.18;95387.06;5136139;27;20191;-72
2022/11/08 05:28:16;;;;;;;29.20;26.00;;;;;;;11.22;82.43;95383.94;5137345;27;20255;-72
2022/11/08 05:30:43;;;;;;;32.83;27.80;;;;;;;11.20;82.51;95386.28;5137303;27;20187;-72
2022/11/08 05:33:12;;;;;;;30.92;27.70;;;;;;;11.17;82.50;95385.00;5137507;27;20187;-72
2022/11/08 05:35:39;;;;;;;30.33;27.15;;;;;;;11.18;82.98;95389.38;5137171;27;20187;-72
2022/11/08 05:38:06;;;;;;;29.88;26.67;;;;;;;11.17;82.90;95381.44;5137206;27;20202;-71
2022/11/08 05:40:33;;;;;;;30.95;27.73;;;;;;;11.14;83.36;95388.47;5135758;27;20266;-71
2022/11/08 05:42:59;;;;;;;30.23;27.13;;;;;;;11.15;83.15;95387.31;5136124;27;20194;-71
2022/11/08 05:45:28;;;;;;;30.00;26.65;;;;;;;11.17;83.63;95395.25;5136543;27;20199;-72
2022/11/08 05:47:56;;;;;;;29.65;26.40;;;;;;;11.18;83.55;95408.69;5136743;27;20622;-72
2022/11/08 05:50:24;;;;;;;30.15;26.15;;;;;;;11.21;83.46;95404.44;5136152;27;20213;-72
2022/11/08 05:52:53;;;;;;;35.67;30.80;;;;;;;11.23;83.35;95393.88;5136851;27;20188;-72
2022/11/08 05:55:20;;;;;;;33.50;29.73;;;;;;;11.28;82.96;95404.66;5136990;27;20183;-72
2022/11/08 05:57:47;;;;;;;33.50;28.45;;;;;;;11.30;82.95;95410.63;5136787;27;20187;-72
2022/11/08 06:00:14;;;;;;;32.00;28.58;;;;;;;11.30;83.05;95425.25;5136013;27;20229;-73
2022/11/08 06:02:42;;;;;;;36.00;28.90;;;;;;;11.33;82.69;95412.72;5135793;27;20202;-71
2022/11/08 06:05:10;;;;;;;33.45;28.75;;;;;;;11.32;83.17;95420.16;5135527;27;20630;-71
2022/11/08 06:07:36;;;;;;;32.50;29.00;;;;;;;11.35;82.83;95423.41;5135766;27;20206;-71
2022/11/08 06:10:05;;;;;;;33.03;28.50;;;;;;;11.36;82.76;95420.28;5135532;27;20203;-71
2022/11/08 06:12:32;;;;;;;29.85;26.52;;;;;;;11.39;82.96;95422.34;5135481;27;20190;-72
2022/11/08 06:14:59;;;;;;;28.70;24.33;;;;;;;11.42;82.82;95420.84;5135795;27;20199;-72
2022/11/08 06:17:27;;;;;;;30.92;23.95;;;;;;;11.43;82.83;95422.44;5136928;27;20191;-71
2022/11/08 06:19:55;;;;;;;27.77;24.05;;;;;;;11.46;83.15;95432.78;5136227;27;20249;-72
2022/11/08 06:22:22;;;;;;;27.65;23.05;;;;;;;11.47;82.59;95435.19;5137122;27;20627;-71
2022/11/08 06:24:49;;;;;;;29.92;23.77;;;;;;;11.48;82.67;95436.81;5136463;27;20206;-72
2022/11/08 06:27:15;;;;;;;26.00;21.58;;;;;;;11.49;82.42;95449.47;5136441;27;20259;-71
2022/11/08 06:29:42;;;;;;;28.67;22.10;;;;;;;11.49;82.30;95440.38;5136925;27;20198;-71
2022/11/08 06:32:10;;;;;;;27.40;23.00;;;;;;;11.49;82.26;95438.44;5136766;27;20256;-71
2022/11/08 06:34:38;;;;;;;28.90;24.77;;;;;;;11.49;82.08;95441.19;5135986;27;20436;-70
2022/11/08 06:37:06;;;;;;;26.33;23.35;;;;;;;11.50;82.48;95447.50;5136710;27;20195;-73
2022/11/08 06:39:34;;;;;;;27.02;23.98;;;;;;;11.52;82.37;95439.69;5135612;27;20241;-74
2022/11/08 06:42:01;;;;;;;29.25;22.73;;;;;;;11.54;82.46;95454.75;5136278;27;20213;-73
2022/11/08 06:44:27;;;;;;;27.15;23.17;;;;;;;11.57;82.30;95450.50;5135566;28;20187;-71
2022/11/08 06:46:55;;;;;;;27.73;24.05;;;;;;;11.60;82.15;95454.53;5135664;28;20207;-71
2022/11/08 06:49:23;;;;;;;31.50;25.25;;;;;;;11.59;82.33;95456.47;5135811;27;20187;-71
2022/11/08 06:51:50;;;;;;;29.27;24.73;;;;;;;11.59;82.24;95450.94;5135363;28;20619;-71
2022/11/08 06:54:19;;;;;;;28.35;24.35;;;;;;;11.60;82.35;95444.25;5135334;28;20191;-70
2022/11/08 06:56:46;;;;;;;25.17;22.45;;;;;;;11.61;82.22;95453.34;5135110;28;20199;-70
2022/11/08 06:59:14;;;;;;;26.83;22.63;;;;;;;11.63;82.33;95457.38;5134783;28;20218;-70
2022/11/08 07:01:42;;;;;;;26.17;22.23;;;;;;;11.65;81.95;95460.59;5135037;28;20271;-70
2022/11/08 07:04:08;;;;;;;26.85;21.40;;;;;;;11.65;81.73;95454.25;5135812;27;20180;-71
2022/11/08 07:06:35;;;;;;;26.55;21.10;;;;;;;11.65;81.67;95457.03;5135948;27;20187;-70
2022/11/08 07:09:02;;;;;;;25.88;20.77;;;;;;;11.67;81.72;95454.72;5136000;27;20190;-74
2022/11/08 07:11:30;;;;;;;25.77;22.15;;;;;;;11.70;81.41;95460.34;5134682;28;20213;-70
2022/11/08 07:13:57;;;;;;;26.88;21.85;;;;;;;11.72;81.43;95463.56;5135627;27;20183;-70
2022/11/08 07:16:25;;;;;;;23.98;20.48;;;;;;;11.74;81.52;95461.25;5135582;27;20268;-70
2022/11/08 07:18:52;;;;;;;23.48;20.80;;;;;;;11.75;81.54;95462.06;5134934;28;20194;-70
2022/11/08 07:21:18;;;;;;;24.58;20.17;;;;;;;11.77;81.64;95457.81;5135779;27;20207;-70
2022/11/08 07:23:47;;;;;;;25.05;20.80;;;;;;;11.78;81.56;95464.94;5135298;28;20201;-70
2022/11/08 07:26:14;;;;;;;23.30;20.42;;;;;;;11.80;81.61;95464.56;5135589;27;20244;-70
2022/11/08 07:28:43;;;;;;;25.25;20.60;;;;;;;11.81;81.35;95460.66;5137294;27;20198;-70
2022/11/08 07:31:11;;;;;;;23.85;19.42;;;;;;;11.81;81.39;95464.22;5138562;27;20203;-70
2022/11/08 07:33:38;;;;;;;24.30;20.02;;;;;;;11.82;81.52;95468.59;5138457;27;20202;-70
2022/11/08 07:36:05;;;;;;;23.27;19.15;;;;;;;11.83;81.38;95466.63;5139582;27;20183;-70
2022/11/08 07:38:32;;;;;;;20.65;18.45;;;;;;;11.86;81.24;95470.69;5138529;27;20183;-70
2022/11/08 07:41:00;;;;;;;22.13;18.42;;;;;;;11.89;81.37;95467.22;5139012;27;20315;-70
2022/11/08 07:43:27;;;;;;;22.98;18.35;;;;;;;11.91;81.46;95473.19;5139158;27;20220;-71
2022/11/08 07:45:57;;;;;;;22.67;18.73;;;;;;;11.91;81.29;95467.66;5139403;27;20198;-70
2022/11/08 07:48:24;;;;;;;22.90;18.90;;;;;;;11.93;81.23;95471.69;5139300;27;20187;-70
2022/11/08 07:50:51;;;;;;;22.92;18.83;;;;;;;11.95;81.52;95465.84;5139099;27;20188;-70
2022/11/08 07:53:18;;;;;;;23.65;20.00;;;;;;;11.95;81.31;95472.16;5139380;27;20247;-70
2022/11/08 07:55:46;;;;;;;25.63;19.63;;;;;;;11.98;81.35;95470.63;5138456;27;20230;-70
2022/11/08 07:58:14;;;;;;;21.15;18.77;;;;;;;12.01;81.28;95462.44;5138488;27;20582;-70
2022/11/08 08:00:43;;;;;;;24.38;19.25;;;;;;;12.03;81.25;95465.66;5139021;27;20219;-70
2022/11/08 08:03:13;;;;;;;22.50;18.08;;;;;;;12.04;81.48;95466.47;5139227;27;20186;-70
2022/11/08 08:05:42;;;;;;;22.45;17.83;;;;;;;12.06;81.23;95463.38;5138357;27;20197;-70
2022/11/08 08:08:09;;;;;;;19.52;17.23;;;;;;;12.06;81.25;95464.16;5138969;27;20183;-69
2022/11/08 08:10:36;;;;;;;21.13;17.50;;;;;;;12.10;81.59;95464.25;5137950;27;20183;-69
2022/11/08 08:13:05;;;;;;;20.60;16.52;;;;;;;12.09;81.32;95466.22;5138836;27;20194;-69
2022/11/08 08:15:32;;;;;;;18.65;16.55;;;;;;;12.10;81.36;95461.50;5137209;27;20207;-69
2022/11/08 08:18:00;;;;;;;18.98;15.18;;;;;;;12.09;80.96;95465.41;5137961;27;20202;-69
2022/11/08 08:20:29;;;;;;;18.48;15.70;;;;;;;12.12;81.55;95468.25;5138499;27;20215;-69
2022/11/08 08:22:56;;;;;;;19.38;16.88;;;;;;;12.15;81.50;95470.31;5138395;27;20485;-69
2022/11/08 08:25:23;;;;;;;18.42;16.17;;;;;;;12.15;81.78;95470.31;5137837;27;20202;-69
2022/11/08 08:27:51;;;;;;;20.83;16.70;;;;;;;12.14;82.29;95467.94;5137685;27;20295;-69
2022/11/08 08:30:19;;;;;;;20.20;17.55;;;;;;;12.17;82.33;95468.03;5137847;27;20198;-69
2022/11/08 08:32:47;;;;;;;18.45;16.17;;;;;;;12.19;81.71;95462.13;5138560;27;20183;-69
2022/11/08 08:35:15;;;;;;;18.35;16.35;;;;;;;12.21;82.08;95468.13;5138564;27;20183;-69
2022/11/08 08:37:43;;;;;;;20.10;17.30;;;;;;;12.22;81.67;95467.75;5137387;27;20244;-70
2022/11/08 08:40:11;;;;;;;18.95;16.95;;;;;;;12.23;81.60;95474.88;5138005;27;20237;-69
2022/11/08 08:42:38;;;;;;;20.13;17.17;;;;;;;12.25;81.81;95472.59;5137354;27;20223;-69
2022/11/08 08:45:06;;;;;;;19.63;16.08;;;;;;;12.28;81.59;95469.13;5137982;27;20615;-69
2022/11/08 08:47:33;;;;;;;18.88;16.77;;;;;;;12.32;81.59;95474.75;5137403;27;20214;-69
2022/11/08 08:49:59;;;;;;;22.00;16.88;;;;;;;12.35;81.70;95484.31;5137772;27;20199;-69
2022/11/08 08:52:26;;;;;;;21.30;17.52;;;;;;;12.36;81.22;95481.16;5137831;27;20191;-69
2022/11/08 08:54:54;;;;;;;22.02;17.85;;;;;;;12.37;81.36;95487.50;5137234;27;20619;-69
2022/11/08 08:57:21;;;;;;;21.60;17.77;;;;;;;12.36;81.02;95486.69;5137508;27;20187;-69
2022/11/08 08:59:48;;;;;;;19.38;16.48;;;;;;;12.37;80.90;95482.78;5137887;27;20195;-70
2022/11/08 09:02:15;;;;;;;21.80;17.48;;;;;;;12.36;80.96;95478.41;5137028;27;20234;-69
2022/11/08 09:04:41;;;;;;;21.00;17.05;;;;;;;12.37;81.01;95473.66;5137072;27;20194;-70
2022/11/08 09:07:08;;;;;;;22.63;17.63;;;;;;;12.36;81.32;95478.41;5136852;27;20235;-69
2022/11/08 09:09:36;;;;;;;23.27;18.30;;;;;;;12.36;81.34;95480.38;5137581;27;20599;-69
2022/11/08 09:12:05;;;;;;;21.73;17.90;;;;;;;12.37;81.44;95474.47;5136999;27;20622;-70
2022/11/08 09:14:32;;;;;;;21.33;17.88;;;;;;;12.40;81.33;95472.97;5136773;27;20194;-69
2022/11/08 09:16:59;;;;;;;23.58;17.85;;;;;;;12.40;81.16;95476.53;5136377;27;20607;-69
2022/11/08 09:19:26;;;;;;;22.33;17.70;;;;;;;12.43;80.79;95475.84;5137122;27;20187;-69
2022/11/08 09:21:52;;;;;;;22.85;18.20;;;;;;;12.45;80.73;95479.03;5136493;27;20650;-69
2022/11/08 09:24:19;;;;;;;20.10;17.90;;;;;;;12.47;80.59;95462.09;5137403;27;20199;-70
2022/11/08 09:26:46;;;;;;;23.25;17.88;;;;;;;12.49;80.10;95482.72;5136273;27;20211;-70
2022/11/08 09:29:14;;;;;;;20.77;17.08;;;;;;;12.50;79.87;95483.53;5137589;27;20183;-70
2022/11/08 09:31:41;;;;;;;22.33;17.30;;;;;;;12.52;79.69;95472.88;5137394;27;20179;-70
2022/11/08 09:34:07;;;;;;;22.70;18.50;;;;;;;12.54;79.96;95473.34;5137410;27;20183;-70
2022/11/08 09:36:34;;;;;;;19.33;16.55;;;;;;;12.56;79.62;95472.97;5136351;27;20192;-70
2022/11/08 09:39:01;;;;;;;20.83;17.27;;;;;;;12.59;79.62;95466.72;5136420;27;20192;-70
2022/11/08 09:41:50;;;;;;;19.95;17.05;;;;;;;12.61;79.73;95469.97;5137170;27;20207;-69
2022/11/08 09:44:33;;;;;;;20.33;17.52;;;;;;;12.62;79.07;95466.03;5136300;27;20203;-69
2022/11/08 09:47:03;;;;;;;19.77;16.83;;;;;;;12.65;78.99;95468.88;5136443;27;20221;-69
2022/11/08 09:49:33;;;;;;;19.38;16.95;;;;;;;12.68;78.90;95462.66;5136893;27;20195;-70
2022/11/08 09:52:00;;;;;;;20.83;17.75;;;;;;;12.69;78.89;95464.25;5135583;27;20203;-69
2022/11/08 09:54:31;;;;;;;20.20;16.88;;;;;;;12.70;78.70;95465.84;5135661;27;20209;-69
2022/11/08 09:56:58;;;;;;;19.52;16.92;;;;;;;12.73;78.54;95456.03;5136468;27;20199;-70
2022/11/08 09:59:34;;;;;;;21.70;17.35;;;;;;;12.74;78.47;95457.63;5136071;27;20191;-69
2022/11/08 10:02:01;;;;;;;22.50;17.38;;;;;;;12.78;78.69;95450.22;5136918;27;20214;-69
2022/11/08 10:04:31;;;;;;;20.70;17.73;;;;;;;12.81;78.90;95460.56;5136690;27;20191;-70
2022/11/08 10:07:14;;;;;;;19.50;16.00;;;;;;;12.84;78.94;95446.03;5136255;27;20202;-70
2022/11/08 10:09:53;;;;;;;21.92;18.02;;;;;;;12.84;78.33;95451.56;5136660;27;20202;-70
2022/11/08 10:12:24;;;;;;;20.83;16.27;;;;;;;12.86;78.11;95449.25;5136589;27;20187;-70
2022/11/08 10:15:03;;;;;;;21.40;16.50;;;;;;;12.89;78.00;95437.47;5136540;27;20267;-69
2022/11/08 10:17:53;;;;;;;18.52;15.98;;;;;;;12.95;77.59;95440.75;5135718;27;20237;-69
2022/11/08 10:20:29;;;;;;;18.80;16.35;;;;;;;12.97;77.08;95442.00;5135637;27;20195;-69
2022/11/08 10:22:59;;;;;;;21.60;16.90;;;;;;;12.99;76.82;95433.31;5135400;27;20254;-69
2022/11/08 10:25:35;;;;;;;17.88;15.98;;;;;;;13.04;76.48;95430.28;5135629;27;20191;-69
2022/11/08 10:28:02;;;;;;;19.50;16.60;;;;;;;13.09;76.03;95429.22;5135461;27;20213;-70
2022/11/08 10:30:34;;;;;;;18.23;16.13;;;;;;;13.13;76.13;95425.34;5136347;27;20199;-70
2022/11/08 10:33:00;;;;;;;20.42;16.13;;;;;;;13.22;75.93;95419.63;5136289;27;20197;-69
2022/11/08 10:35:30;;;;;;;19.80;15.95;;;;;;;13.36;76.43;95419.97;5136294;27;20202;-69
2022/11/08 10:37:59;;;;;;;19.08;15.57;;;;;;;13.45;75.59;95417.00;5136315;27;20198;-70
2022/11/08 10:40:38;;;;;;;19.52;17.02;;;;;;;13.49;75.18;95418.66;5135037;27;20230;-69
2022/11/08 10:43:09;;;;;;;19.23;15.48;;;;;;;13.54;74.14;95416.78;5135791;27;20214;-70
2022/11/08 10:45:37;;;;;;;17.77;15.63;;;;;;;13.56;73.82;95411.69;5136314;27;20183;-70
2022/11/08 10:48:04;;;;;;;19.30;16.00;;;;;;;13.61;72.91;95408.59;5135323;28;20205;-69
2022/11/08 10:50:40;;;;;;;20.08;16.27;;;;;;;13.67;72.79;95404.38;5135969;27;20195;-69
2022/11/08 10:53:15;;;;;;;17.08;15.27;;;;;;;13.69;71.79;95405.63;5136082;27;20194;-69
2022/11/08 10:55:48;;;;;;;17.30;14.75;;;;;;;13.70;71.57;95401.69;5135903;27;20186;-69
2022/11/08 10:58:28;;;;;;;14.73;13.15;;;;;;;13.79;72.32;95400.66;5135208;28;20191;-69
2022/11/08 11:01:01;;;;;;;17.65;15.02;;;;;;;13.85;72.17;95396.44;5136246;28;20206;-69
2022/11/08 11:03:29;;;;;;;19.40;14.63;;;;;;;13.86;72.11;95398.81;5136371;27;20255;-68
2022/11/08 11:05:59;;;;;;;18.00;16.00;;;;;;;13.92;72.27;95400.16;5140285;27;20235;-68
2022/11/08 11:08:26;;;;;;;18.52;14.90;;;;;;;13.99;71.93;95395.91;5139158;27;20203;-68
2022/11/08 11:10:53;;;;;;;17.08;15.02;;;;;;;14.01;71.87;95390.78;5140090;27;20180;-69
2022/11/08 11:13:22;;;;;;;18.65;14.48;;;;;;;13.99;71.43;95388.41;5138784;27;20286;-70
2022/11/08 11:15:51;;;;;;;16.77;14.98;;;;;;;13.96;70.47;95389.91;5139097;27;20206;-70
2022/11/08 11:18:28;;;;;;;17.45;15.32;;;;;;;13.93;70.01;95396.19;5140007;27;20187;-70
2022/11/08 11:21:01;;;;;;;17.95;14.07;;;;;;;13.89;69.34;95387.00;5139410;27;20191;-70
2022/11/08 11:23:36;;;;;;;17.23;13.98;;;;;;;13.83;69.41;95382.91;5139734;27;20215;-70
2022/11/08 11:26:04;;;;;;;16.40;13.90;;;;;;;13.82;69.82;95384.09;5139483;27;20191;-70
2022/11/08 11:28:31;;;;;;;17.95;14.80;;;;;;;13.83;69.49;95382.13;5139297;27;20649;-69
2022/11/08 11:31:02;;;;;;;16.85;14.13;;;;;;;13.80;68.86;95383.69;5139837;27;20206;-69
2022/11/08 11:33:32;;;;;;;15.88;13.32;;;;;;;13.76;68.21;95379.22;5139061;27;20213;-70
2022/11/08 11:36:04;;;;;;;15.18;13.57;;;;;;;13.75;68.35;95381.19;5138926;27;20198;-69
2022/11/08 11:38:39;;;;;;;15.00;13.07;;;;;;;13.75;67.91;95374.84;5138532;27;20573;-70
2022/11/08 11:41:11;;;;;;;14.10;12.57;;;;;;;13.72;68.06;95374.41;5138624;27;20241;-70
2022/11/08 11:43:43;;;;;;;15.65;12.90;;;;;;;13.76;68.20;95373.66;5139434;27;20191;-70